createdAt,value
2023-03-26T00:00:55.575Z,8.1
2023-03-26T00:01:56.591Z,8
2023-03-26T00:02:57.574Z,7.8
2023-03-26T00:03:58.544Z,7.8
2023-03-26T00:04:59.536Z,7.9
2023-03-26T00:06:00.626Z,7.9
2023-03-26T00:07:01.613Z,8
2023-03-26T00:08:02.546Z,8.1
2023-03-26T00:09:03.526Z,8
2023-03-26T00:10:04.591Z,8
2023-03-26T00:11:05.601Z,8.1
2023-03-26T00:12:06.599Z,8.1
2023-03-26T00:13:07.577Z,8.1
2023-03-26T00:14:08.562Z,8.2
2023-03-26T00:15:09.540Z,8.1
2023-03-26T00:16:10.617Z,8.1
2023-03-26T00:17:11.599Z,8.1
2023-03-26T00:18:12.549Z,8.2
2023-03-26T00:19:13.662Z,8.2
2023-03-26T00:20:14.585Z,8.3
2023-03-26T00:21:15.576Z,8.3
2023-03-26T00:22:16.537Z,8.3
2023-03-26T00:23:17.580Z,8.4
2023-03-26T00:24:18.592Z,8.4
2023-03-26T00:25:19.575Z,8.5
2023-03-26T00:26:20.575Z,8.5
2023-03-26T00:27:21.612Z,8.5
2023-03-26T00:28:22.616Z,8.7
2023-03-26T00:29:23.614Z,8.7
2023-03-26T00:30:24.564Z,8.7
2023-03-26T00:31:25.575Z,8.8
2023-03-26T00:32:26.634Z,8.8
2023-03-26T00:33:27.594Z,8.9
2023-03-26T00:34:28.575Z,9
2023-03-26T00:35:29.558Z,9.1
2023-03-26T00:36:30.643Z,9
2023-03-26T00:37:31.579Z,9
2023-03-26T00:38:32.599Z,9
2023-03-26T00:39:33.591Z,9.1
2023-03-26T00:40:34.617Z,9.1
2023-03-26T00:41:35.679Z,9.1
2023-03-26T00:42:36.619Z,9.1
2023-03-26T00:43:37.579Z,9.1
2023-03-26T00:44:38.617Z,9.1
2023-03-26T00:45:39.578Z,9.1
2023-03-26T00:46:40.681Z,9
2023-03-26T00:47:41.650Z,9
2023-03-26T00:48:45.402Z,8.9
2023-03-26T00:49:43.578Z,8.9
2023-03-26T00:50:44.618Z,8.7
2023-03-26T00:51:45.599Z,8.7
2023-03-26T00:52:46.569Z,8.7
2023-03-26T00:53:47.659Z,8.6
2023-03-26T00:54:48.600Z,8.7
2023-03-26T00:55:49.599Z,8.7
2023-03-26T00:56:50.710Z,8.5
2023-03-26T00:57:51.599Z,8.4
2023-03-26T00:58:52.630Z,8.2
2023-03-26T00:59:53.639Z,8.1
2023-03-26T01:00:54.590Z,8.2
2023-03-26T01:01:55.622Z,8
2023-03-26T01:02:56.649Z,7.9
2023-03-26T01:04:07.218Z,8
2023-03-26T01:04:58.614Z,8
2023-03-26T01:05:59.597Z,8.1
2023-03-26T01:07:00.599Z,8
2023-03-26T01:08:01.604Z,8
2023-03-26T01:09:02.649Z,8.1
2023-03-26T01:10:03.618Z,8.1
2023-03-26T01:11:04.597Z,8.2
2023-03-26T01:12:05.613Z,8.3
2023-03-26T01:13:06.596Z,8.3
2023-03-26T01:14:07.617Z,8.3
2023-03-26T01:15:08.665Z,8.3
2023-03-26T01:16:09.589Z,8.4
2023-03-26T01:17:10.638Z,8.3
2023-03-26T01:18:11.637Z,8.3
2023-03-26T01:19:12.626Z,8.3
2023-03-26T01:20:13.666Z,8.3
2023-03-26T01:21:14.604Z,8.3
2023-03-26T01:22:15.624Z,8.3
2023-03-26T01:23:16.682Z,8.2
2023-03-26T01:24:17.623Z,8.1
2023-03-26T01:25:18.629Z,8.2
2023-03-26T01:26:19.656Z,8.2
2023-03-26T01:27:20.649Z,8.1
2023-03-26T01:28:21.726Z,8
2023-03-26T01:29:22.618Z,7.9
2023-03-26T01:30:23.604Z,7.9
2023-03-26T01:31:24.621Z,8
2023-03-26T01:32:25.706Z,7.9
2023-03-26T01:33:26.742Z,7.8
2023-03-26T01:34:27.637Z,7.7
2023-03-26T01:35:28.612Z,7.7
2023-03-26T01:36:29.619Z,7.6
2023-03-26T01:37:30.657Z,7.7
2023-03-26T01:38:31.617Z,7.6
2023-03-26T01:39:32.635Z,7.5
2023-03-26T01:40:33.643Z,7.5
2023-03-26T01:41:34.634Z,7.5
2023-03-26T01:42:35.648Z,7.4
2023-03-26T01:43:36.638Z,7.5
2023-03-26T01:44:37.596Z,7.4
2023-03-26T01:45:38.645Z,7.5
2023-03-26T01:46:39.732Z,7.4
2023-03-26T01:47:40.656Z,7.3
2023-03-26T01:48:41.658Z,7.4
2023-03-26T01:49:42.636Z,7.5
2023-03-26T01:50:43.655Z,7.6
2023-03-26T01:51:44.679Z,7.7
2023-03-26T01:52:45.648Z,7.8
2023-03-26T01:53:46.622Z,7.8
2023-03-26T01:54:47.615Z,7.8
2023-03-26T01:55:48.636Z,7.7
2023-03-26T01:56:49.738Z,7.6
2023-03-26T01:57:50.672Z,7.6
2023-03-26T01:58:51.617Z,7.6
2023-03-26T01:59:52.622Z,7.6
2023-03-26T02:00:53.648Z,7.6
2023-03-26T02:01:54.698Z,7.7
2023-03-26T02:02:55.706Z,7.8
2023-03-26T02:03:56.696Z,7.8
2023-03-26T02:04:57.621Z,7.9
2023-03-26T02:05:58.660Z,7.9
2023-03-26T02:06:59.615Z,8
2023-03-26T02:08:00.637Z,7.9
2023-03-26T02:09:01.676Z,8
2023-03-26T02:10:02.655Z,8
2023-03-26T02:11:03.636Z,8
2023-03-26T02:12:04.636Z,8
2023-03-26T02:13:05.658Z,8
2023-03-26T02:14:06.688Z,8
2023-03-26T02:15:07.636Z,8
2023-03-26T02:16:08.660Z,8
2023-03-26T02:17:09.633Z,8
2023-03-26T02:18:10.618Z,7.9
2023-03-26T02:19:11.652Z,7.9
2023-03-26T02:20:12.635Z,8
2023-03-26T02:21:13.675Z,8
2023-03-26T02:22:14.641Z,7.9
2023-03-26T02:23:15.676Z,7.9
2023-03-26T02:24:16.656Z,7.9
2023-03-26T02:25:17.657Z,8
2023-03-26T02:26:18.673Z,8
2023-03-26T02:27:19.675Z,8
2023-03-26T02:28:20.730Z,8
2023-03-26T02:29:21.673Z,8
2023-03-26T02:30:22.673Z,8
2023-03-26T02:31:23.692Z,7.9
2023-03-26T02:32:24.745Z,7.9
2023-03-26T02:33:25.640Z,7.9
2023-03-26T02:34:26.651Z,7.8
2023-03-26T02:35:27.710Z,7.8
2023-03-26T02:36:28.699Z,7.8
2023-03-26T02:37:29.682Z,7.7
2023-03-26T02:38:30.712Z,7.7
2023-03-26T02:39:31.713Z,7.7
2023-03-26T02:40:32.689Z,7.7
2023-03-26T02:41:33.724Z,7.8
2023-03-26T02:42:34.655Z,7.8
2023-03-26T02:43:35.676Z,7.8
2023-03-26T02:44:36.682Z,7.8
2023-03-26T02:45:37.710Z,7.8
2023-03-26T02:46:38.699Z,7.9
2023-03-26T02:47:39.697Z,7.9
2023-03-26T02:48:40.669Z,7.9
2023-03-26T02:49:41.658Z,7.9
2023-03-26T02:50:42.700Z,7.8
2023-03-26T02:51:43.718Z,7.8
2023-03-26T02:52:44.671Z,7.7
2023-03-26T02:53:45.651Z,7.8
2023-03-26T02:54:46.679Z,7.8
2023-03-26T02:55:47.714Z,7.9
2023-03-26T02:56:48.660Z,8
2023-03-26T02:57:49.684Z,8.1
2023-03-26T02:58:50.714Z,8.2
2023-03-26T02:59:51.672Z,8.2
2023-03-26T03:00:52.749Z,8.3
2023-03-26T03:01:53.776Z,8.3
2023-03-26T03:02:54.754Z,8.4
2023-03-26T03:03:55.667Z,8.5
2023-03-26T03:04:56.652Z,8.6
2023-03-26T03:05:57.856Z,8.7
2023-03-26T03:06:58.713Z,8.7
2023-03-26T03:07:59.677Z,8.8
2023-03-26T03:09:00.691Z,8.7
2023-03-26T03:10:01.700Z,8.7
2023-03-26T03:11:02.656Z,8.8
2023-03-26T03:12:03.712Z,8.8
2023-03-26T03:13:04.731Z,8.8
2023-03-26T03:14:05.683Z,8.8
2023-03-26T03:15:06.679Z,8.8
2023-03-26T03:16:07.634Z,8.8
2023-03-26T03:17:08.732Z,8.9
2023-03-26T03:18:09.654Z,9
2023-03-26T03:19:10.695Z,9
2023-03-26T03:20:11.690Z,9
2023-03-26T03:21:12.673Z,9
2023-03-26T03:22:13.714Z,9
2023-03-26T03:23:14.673Z,9.1
2023-03-26T03:24:15.662Z,9.2
2023-03-26T03:25:16.704Z,9.3
2023-03-26T03:26:17.685Z,9.3
2023-03-26T03:27:18.713Z,9.2
2023-03-26T03:28:19.657Z,9.2
2023-03-26T03:29:20.737Z,9.3
2023-03-26T03:30:21.736Z,9.4
2023-03-26T03:31:22.688Z,9.4
2023-03-26T03:32:23.710Z,9.6
2023-03-26T03:33:24.708Z,9.6
2023-03-26T03:34:25.741Z,9.5
2023-03-26T03:35:26.691Z,9.3
2023-03-26T03:36:27.698Z,9.2
2023-03-26T03:37:28.680Z,9.1
2023-03-26T03:38:29.696Z,9.2
2023-03-26T03:39:30.756Z,9.4
2023-03-26T03:40:31.696Z,9.6
2023-03-26T03:41:32.717Z,9.7
2023-03-26T03:42:33.703Z,9.7
2023-03-26T03:43:34.675Z,9.7
2023-03-26T03:44:35.723Z,9.6
2023-03-26T03:45:36.723Z,9.5
2023-03-26T03:46:37.783Z,9.2
2023-03-26T03:47:38.701Z,8.9
2023-03-26T03:48:39.751Z,8.8
2023-03-26T03:49:40.680Z,8.9
2023-03-26T03:50:41.716Z,9
2023-03-26T03:51:42.700Z,9.1
2023-03-26T03:52:43.680Z,9.1
2023-03-26T03:53:44.676Z,9.2
2023-03-26T03:54:45.643Z,9.2
2023-03-26T03:55:46.696Z,9.2
2023-03-26T03:56:47.746Z,9.1
2023-03-26T03:57:48.777Z,9
2023-03-26T03:58:49.711Z,8.9
2023-03-26T03:59:50.695Z,8.7
2023-03-26T04:00:51.705Z,8.7
2023-03-26T04:01:52.811Z,8.7
2023-03-26T04:02:53.737Z,8.6
2023-03-26T04:03:54.769Z,8.6
2023-03-26T04:04:55.743Z,8.5
2023-03-26T04:05:56.842Z,8.5
2023-03-26T04:06:57.722Z,8.6
2023-03-26T04:07:58.716Z,8.7
2023-03-26T04:08:59.735Z,8.7
2023-03-26T04:10:00.660Z,8.6
2023-03-26T04:11:01.713Z,8.5
2023-03-26T04:12:02.721Z,8.3
2023-03-26T04:13:03.735Z,8.2
2023-03-26T04:14:04.715Z,8.2
2023-03-26T04:15:05.721Z,8.2
2023-03-26T04:16:06.712Z,8.2
2023-03-26T04:17:07.697Z,8
2023-03-26T04:18:08.758Z,8
2023-03-26T04:19:09.695Z,7.9
2023-03-26T04:20:10.720Z,8
2023-03-26T04:21:11.695Z,8
2023-03-26T04:22:12.726Z,8.1
2023-03-26T04:23:13.740Z,8.2
2023-03-26T04:24:14.672Z,8.3
2023-03-26T04:25:15.732Z,8.4
2023-03-26T04:26:16.699Z,8.5
2023-03-26T04:27:17.695Z,8.6
2023-03-26T04:28:18.715Z,8.5
2023-03-26T04:29:19.703Z,8.4
2023-03-26T04:30:20.766Z,8.4
2023-03-26T04:31:21.721Z,8.4
2023-03-26T04:32:22.772Z,8.5
2023-03-26T04:33:23.722Z,8.4
2023-03-26T04:34:24.746Z,8.5
2023-03-26T04:35:25.746Z,8.5
2023-03-26T04:36:26.716Z,8.5
2023-03-26T04:37:27.715Z,8.4
2023-03-26T04:38:28.756Z,8.3
2023-03-26T04:39:29.733Z,8.3
2023-03-26T04:40:30.773Z,8.3
2023-03-26T04:41:31.698Z,8.4
2023-03-26T04:42:32.692Z,8.4
2023-03-26T04:43:33.746Z,8.5
2023-03-26T04:44:34.801Z,8.5
2023-03-26T04:45:35.807Z,8.4
2023-03-26T04:46:36.792Z,8.4
2023-03-26T04:47:37.737Z,8.3
2023-03-26T04:48:38.805Z,8.2
2023-03-26T04:49:39.716Z,8.1
2023-03-26T04:50:40.699Z,8
2023-03-26T04:51:41.719Z,8
2023-03-26T04:52:45.071Z,7.9
2023-03-26T04:53:43.744Z,8
2023-03-26T04:54:44.684Z,7.9
2023-03-26T04:55:45.686Z,7.8
2023-03-26T04:56:46.778Z,7.8
2023-03-26T04:57:47.674Z,7.7
2023-03-26T04:58:48.754Z,7.7
2023-03-26T04:59:49.724Z,7.7
2023-03-26T05:00:50.786Z,7.7
2023-03-26T05:01:51.714Z,7.7
2023-03-26T05:02:52.804Z,7.7
2023-03-26T05:03:53.715Z,7.7
2023-03-26T05:04:54.714Z,7.6
2023-03-26T05:05:55.866Z,7.6
2023-03-26T05:06:56.756Z,7.7
2023-03-26T05:07:57.798Z,7.8
2023-03-26T05:08:58.765Z,7.8
2023-03-26T05:09:59.683Z,7.8
2023-03-26T05:11:00.864Z,7.6
2023-03-26T05:12:01.733Z,7.5
2023-03-26T05:13:02.733Z,7.6
2023-03-26T05:14:03.753Z,7.6
2023-03-26T05:15:04.752Z,7.6
2023-03-26T05:16:05.810Z,7.6
2023-03-26T05:17:06.718Z,7.7
2023-03-26T05:18:07.810Z,7.7
2023-03-26T05:19:08.740Z,7.6
2023-03-26T05:20:09.732Z,7.7
2023-03-26T05:21:10.783Z,7.7
2023-03-26T05:22:11.712Z,7.7
2023-03-26T05:23:12.687Z,7.6
2023-03-26T05:24:13.733Z,7.7
2023-03-26T05:25:14.738Z,7.7
2023-03-26T05:26:15.777Z,7.7
2023-03-26T05:27:16.752Z,7.8
2023-03-26T05:28:17.773Z,7.8
2023-03-26T05:29:18.694Z,7.8
2023-03-26T05:30:19.775Z,7.7
2023-03-26T05:31:20.759Z,7.7
2023-03-26T05:32:21.779Z,7.7
2023-03-26T05:33:22.859Z,7.7
2023-03-26T05:34:23.774Z,7.7
2023-03-26T05:35:24.776Z,7.5
2023-03-26T05:36:25.752Z,7.5
2023-03-26T05:37:26.774Z,7.4
2023-03-26T05:38:27.692Z,7.4
2023-03-26T05:39:28.743Z,7.4
2023-03-26T05:40:29.773Z,7.4
2023-03-26T05:41:30.732Z,7.5
2023-03-26T05:42:31.751Z,7.6
2023-03-26T05:43:32.802Z,7.6
2023-03-26T05:44:33.761Z,7.7
2023-03-26T05:45:34.768Z,7.7
2023-03-26T05:46:35.793Z,7.8
2023-03-26T05:47:36.759Z,7.7
2023-03-26T05:48:37.794Z,7.7
2023-03-26T05:49:38.734Z,7.8
2023-03-26T05:50:39.734Z,7.7
2023-03-26T05:51:40.774Z,7.7
2023-03-26T05:52:41.775Z,7.7
2023-03-26T05:53:42.822Z,7.7
2023-03-26T05:54:43.738Z,7.8
2023-03-26T05:55:44.804Z,7.9
2023-03-26T05:56:45.764Z,7.9
2023-03-26T05:57:46.753Z,7.9
2023-03-26T05:58:47.793Z,7.9
2023-03-26T05:59:48.805Z,7.9
2023-03-26T06:00:49.760Z,7.9
2023-03-26T06:01:50.803Z,7.9
2023-03-26T06:02:51.811Z,7.9
2023-03-26T06:03:52.914Z,7.9
2023-03-26T06:04:53.792Z,7.8
2023-03-26T06:05:54.774Z,7.9
2023-03-26T06:06:55.715Z,7.9
2023-03-26T06:07:56.752Z,8
2023-03-26T06:09:01.283Z,8
2023-03-26T06:09:58.757Z,7.9
2023-03-26T06:10:59.738Z,8
2023-03-26T06:12:00.776Z,8
2023-03-26T06:13:01.754Z,8.1
2023-03-26T06:14:02.815Z,8.2
2023-03-26T06:15:03.753Z,8.4
2023-03-26T06:16:04.805Z,8.5
2023-03-26T06:17:05.759Z,8.5
2023-03-26T06:18:06.768Z,8.4
2023-03-26T06:19:07.787Z,8.4
2023-03-26T06:20:09.478Z,8.3
2023-03-26T06:21:09.734Z,8.3
2023-03-26T06:22:10.757Z,8.2
2023-03-26T06:23:11.804Z,8.2
2023-03-26T06:24:12.774Z,8.2
2023-03-26T06:25:13.752Z,8.1
2023-03-26T06:26:14.772Z,8.1
2023-03-26T06:27:15.772Z,8.1
2023-03-26T06:28:16.740Z,8.2
2023-03-26T06:29:17.801Z,8.2
2023-03-26T06:30:18.793Z,8.2
2023-03-26T06:31:19.745Z,8.1
2023-03-26T06:32:20.867Z,8.1
2023-03-26T06:33:24.138Z,8.1
2023-03-26T06:34:22.810Z,8.2
2023-03-26T06:35:23.801Z,8.1
2023-03-26T06:36:24.725Z,8
2023-03-26T06:37:25.822Z,8.1
2023-03-26T06:38:26.735Z,8.1
2023-03-26T06:39:27.757Z,8.1
2023-03-26T06:40:28.739Z,8.2
2023-03-26T06:41:29.748Z,8.2
2023-03-26T06:42:31.938Z,8.3
2023-03-26T06:43:31.757Z,8.4
2023-03-26T06:44:32.850Z,8.5
2023-03-26T06:45:33.739Z,8.6
2023-03-26T06:46:34.765Z,8.7
2023-03-26T06:47:35.778Z,8.8
2023-03-26T06:48:36.855Z,8.8
2023-03-26T06:49:37.770Z,8.9
2023-03-26T06:50:38.755Z,8.9
2023-03-26T06:51:39.775Z,9
2023-03-26T06:52:40.777Z,9.1
2023-03-26T06:53:41.762Z,9
2023-03-26T06:54:42.799Z,9
2023-03-26T06:55:43.789Z,9
2023-03-26T06:56:44.831Z,8.9
2023-03-26T06:57:45.776Z,8.8
2023-03-26T06:58:46.772Z,8.8
2023-03-26T06:59:47.820Z,8.9
2023-03-26T07:00:48.789Z,8.9
2023-03-26T07:01:49.776Z,8.9
2023-03-26T07:02:50.840Z,9
2023-03-26T07:03:51.812Z,9
2023-03-26T07:04:53.196Z,8.9
2023-03-26T07:05:54.777Z,9
2023-03-26T07:06:55.771Z,9
2023-03-26T07:07:56.779Z,9
2023-03-26T07:08:57.801Z,9
2023-03-26T07:09:58.779Z,8.9
2023-03-26T07:10:59.820Z,8.8
2023-03-26T07:12:00.803Z,8.7
2023-03-26T07:13:01.808Z,8.6
2023-03-26T07:14:02.798Z,8.6
2023-03-26T07:15:03.811Z,8.7
2023-03-26T07:16:04.874Z,8.7
2023-03-26T07:17:05.758Z,8.7
2023-03-26T07:18:06.890Z,8.7
2023-03-26T07:19:07.812Z,8.6
2023-03-26T07:20:08.765Z,8.4
2023-03-26T07:21:09.826Z,8.3
2023-03-26T07:22:10.749Z,8.2
2023-03-26T07:23:11.795Z,8.3
2023-03-26T07:24:12.818Z,8.3
2023-03-26T07:25:13.776Z,8.3
2023-03-26T07:26:14.760Z,8.3
2023-03-26T07:27:15.777Z,8.4
2023-03-26T07:28:16.864Z,8.4
2023-03-26T07:29:17.916Z,8.3
2023-03-26T07:30:18.821Z,8.3
2023-03-26T07:31:19.789Z,8.4
2023-03-26T07:32:20.811Z,8.4
2023-03-26T07:33:21.957Z,8.4
2023-03-26T07:34:23.818Z,8.5
2023-03-26T07:35:24.784Z,8.6
2023-03-26T07:36:25.825Z,8.5
2023-03-26T07:37:26.804Z,8.4
2023-03-26T07:38:27.885Z,8.4
2023-03-26T07:39:28.772Z,8.5
2023-03-26T07:40:29.797Z,8.6
2023-03-26T07:41:30.799Z,8.7
2023-03-26T07:42:31.827Z,8.7
2023-03-26T07:43:32.778Z,8.8
2023-03-26T07:44:35.694Z,8.9
2023-03-26T07:45:34.907Z,8.9
2023-03-26T07:46:35.799Z,9
2023-03-26T07:47:36.840Z,9.1
2023-03-26T07:48:37.839Z,9.1
2023-03-26T07:49:38.837Z,9.2
2023-03-26T07:50:40.095Z,9.2
2023-03-26T07:51:40.786Z,9.2
2023-03-26T07:52:41.817Z,9.3
2023-03-26T07:53:42.772Z,9.4
2023-03-26T07:54:43.795Z,9.5
2023-03-26T07:55:44.816Z,9.6
2023-03-26T07:56:45.870Z,9.4
2023-03-26T07:57:46.806Z,9.3
2023-03-26T07:58:47.796Z,9.4
2023-03-26T07:59:48.782Z,9.5
2023-03-26T08:00:49.894Z,9.5
2023-03-26T08:01:50.775Z,9.5
2023-03-26T08:02:51.889Z,9.5
2023-03-26T08:03:52.842Z,9.6
2023-03-26T08:04:56.901Z,9.5
2023-03-26T08:05:57.859Z,9.5
2023-03-26T08:06:58.863Z,9.5
2023-03-26T08:07:59.791Z,9.3
2023-03-26T08:09:00.815Z,9.2
2023-03-26T08:10:01.880Z,9.2
2023-03-26T08:11:02.834Z,9.2
2023-03-26T08:12:03.857Z,9.2
2023-03-26T08:13:04.796Z,9.2
2023-03-26T08:14:05.826Z,9.2
2023-03-26T08:15:06.835Z,9.2
2023-03-26T08:16:07.958Z,9.2
2023-03-26T08:17:08.771Z,9.2
2023-03-26T08:18:09.818Z,9
2023-03-26T08:19:10.895Z,8.8
2023-03-26T08:20:11.819Z,8.8
2023-03-26T08:21:12.891Z,8.8
2023-03-26T08:22:13.797Z,8.8
2023-03-26T08:23:14.767Z,8.9
2023-03-26T08:24:15.813Z,8.9
2023-03-26T08:25:16.819Z,8.9
2023-03-26T08:26:17.892Z,9
2023-03-26T08:27:18.817Z,9
2023-03-26T08:28:19.872Z,9.1
2023-03-26T08:29:21.837Z,9.1
2023-03-26T08:30:22.945Z,9.1
2023-03-26T08:31:23.865Z,9.1
2023-03-26T08:32:24.826Z,9.1
2023-03-26T08:33:25.863Z,9.1
2023-03-26T08:34:26.836Z,9.1
2023-03-26T08:35:27.827Z,9.1
2023-03-26T08:36:28.811Z,9.1
2023-03-26T08:37:29.831Z,9.1
2023-03-26T08:38:30.820Z,9.1
2023-03-26T08:39:31.870Z,9.1
2023-03-26T08:40:32.812Z,9
2023-03-26T08:41:33.792Z,9.1
2023-03-26T08:42:34.874Z,9.1
2023-03-26T08:43:35.872Z,9.1
2023-03-26T08:44:36.817Z,9.3
2023-03-26T08:45:37.872Z,9.3
2023-03-26T08:46:38.859Z,9.3
2023-03-26T08:47:39.910Z,9.3
2023-03-26T08:48:40.856Z,9.4
2023-03-26T08:49:41.866Z,9.6
2023-03-26T08:50:42.833Z,9.6
2023-03-26T08:51:43.806Z,9.7
2023-03-26T08:52:45.214Z,9.8
2023-03-26T08:53:45.838Z,9.8
2023-03-26T08:54:46.837Z,9.8
2023-03-26T08:55:47.833Z,9.8
2023-03-26T08:56:48.899Z,9.9
2023-03-26T08:57:49.837Z,10
2023-03-26T08:58:50.853Z,10
2023-03-26T08:59:51.830Z,10
2023-03-26T09:00:53.198Z,10.1
2023-03-26T09:01:53.974Z,10.2
2023-03-26T09:02:54.869Z,10.4
2023-03-26T09:03:55.847Z,10.4
2023-03-26T09:04:56.899Z,10.5
2023-03-26T09:05:57.840Z,10.7
2023-03-26T09:06:58.833Z,10.9
2023-03-26T09:07:59.789Z,10.9
2023-03-26T09:09:00.815Z,10.9
2023-03-26T09:10:02.348Z,10.6
2023-03-26T09:11:03.912Z,10.4
2023-03-26T09:12:04.872Z,10.3
2023-03-26T09:13:05.857Z,10.4
2023-03-26T09:14:06.845Z,10.5
2023-03-26T09:15:07.847Z,10.4
2023-03-26T09:16:08.819Z,10.3
2023-03-26T09:17:09.894Z,9.9
2023-03-26T09:18:10.850Z,9.6
2023-03-26T09:19:11.848Z,9.1
2023-03-26T09:20:12.961Z,8.5
2023-03-26T09:21:13.894Z,8.2
2023-03-26T09:22:14.841Z,8
2023-03-26T09:23:15.826Z,8
2023-03-26T09:24:16.898Z,8
2023-03-26T09:25:17.843Z,8.1
2023-03-26T09:26:18.827Z,8.2
2023-03-26T09:27:19.896Z,8.2
2023-03-26T09:28:23.957Z,8.2
2023-03-26T09:29:24.867Z,8.3
2023-03-26T09:30:25.868Z,8.4
2023-03-26T09:31:26.907Z,8.4
2023-03-26T09:32:27.950Z,8.4
2023-03-26T09:33:28.974Z,8.4
2023-03-26T09:34:29.866Z,8.5
2023-03-26T09:35:30.908Z,8.3
2023-03-26T09:36:31.834Z,8.4
2023-03-26T09:37:32.837Z,8.4
2023-03-26T09:38:33.840Z,8.4
2023-03-26T09:39:34.838Z,8.5
2023-03-26T09:40:35.872Z,8.7
2023-03-26T09:41:36.841Z,8.8
2023-03-26T09:42:37.841Z,8.9
2023-03-26T09:43:38.908Z,8.9
2023-03-26T09:44:39.906Z,8.8
2023-03-26T09:45:40.849Z,8.9
2023-03-26T09:46:41.861Z,8.8
2023-03-26T09:47:42.959Z,8.5
2023-03-26T09:48:43.858Z,8.6
2023-03-26T09:49:44.874Z,8.5
2023-03-26T09:50:45.884Z,8.5
2023-03-26T09:51:46.819Z,8.5
2023-03-26T09:52:47.937Z,8.7
2023-03-26T09:53:48.877Z,8.7
2023-03-26T09:54:49.840Z,8.8
2023-03-26T09:55:50.860Z,8.8
2023-03-26T09:56:51.872Z,8.8
2023-03-26T09:57:52.865Z,8.7
2023-03-26T09:58:53.896Z,8.8
2023-03-26T09:59:54.857Z,8.8
2023-03-26T10:00:56.007Z,9
2023-03-26T10:01:56.848Z,9
2023-03-26T10:02:57.949Z,9.1
2023-03-26T10:03:58.864Z,9.1
2023-03-26T10:04:59.914Z,9
2023-03-26T10:06:00.875Z,8.9
2023-03-26T10:07:02.308Z,8.7
2023-03-26T10:08:03.957Z,8.4
2023-03-26T10:09:04.868Z,8.3
2023-03-26T10:10:05.867Z,8.5
2023-03-26T10:11:06.940Z,8.7
2023-03-26T10:12:07.866Z,8.9
2023-03-26T10:13:14.706Z,9.2
2023-03-26T10:14:09.875Z,9.3
2023-03-26T10:15:10.938Z,9.5
2023-03-26T10:16:12.604Z,9.6
2023-03-26T10:17:13.879Z,9.8
2023-03-26T10:18:26.900Z,10
2023-03-26T10:19:15.938Z,10.1
2023-03-26T10:20:16.900Z,10.1
2023-03-26T10:21:17.962Z,10.2
2023-03-26T10:22:18.917Z,10.4
2023-03-26T10:23:19.875Z,10.4
2023-03-26T10:24:20.878Z,10.4
2023-03-26T10:25:21.938Z,10.5
2023-03-26T10:26:23.004Z,10.5
2023-03-26T10:27:24.790Z,10.7
2023-03-26T10:28:24.846Z,10.9
2023-03-26T10:29:25.896Z,11.2
2023-03-26T10:30:26.950Z,11.4
2023-03-26T10:31:27.953Z,11.5
2023-03-26T10:32:28.958Z,11.6
2023-03-26T10:33:29.931Z,11.6
2023-03-26T10:34:30.878Z,11.5
2023-03-26T10:35:31.916Z,11.4
2023-03-26T10:36:32.967Z,11.2
2023-03-26T10:37:33.892Z,11
2023-03-26T10:38:34.875Z,11
2023-03-26T10:39:36.995Z,11.1
2023-03-26T10:40:36.907Z,11.2
2023-03-26T10:41:37.893Z,11.3
2023-03-26T10:42:38.903Z,11.4
2023-03-26T10:43:40.057Z,11.3
2023-03-26T10:44:40.872Z,11.2
2023-03-26T10:45:41.896Z,10.9
2023-03-26T10:46:42.919Z,10.7
2023-03-26T10:47:43.911Z,10.4
2023-03-26T10:48:44.932Z,10.3
2023-03-26T10:49:45.902Z,10.2
2023-03-26T10:50:46.910Z,10.1
2023-03-26T10:51:47.998Z,9.9
2023-03-26T10:52:48.888Z,9.9
2023-03-26T10:53:49.896Z,10.1
2023-03-26T10:54:50.870Z,10.3
2023-03-26T10:55:51.975Z,10.5
2023-03-26T10:56:53.043Z,10.6
2023-03-26T10:57:53.925Z,10.7
2023-03-26T10:58:54.888Z,10.8
2023-03-26T10:59:55.962Z,10.9
2023-03-26T11:00:57.008Z,11
2023-03-26T11:01:57.990Z,11.1
2023-03-26T11:02:58.928Z,11.3
2023-03-26T11:04:00.041Z,11.5
2023-03-26T11:05:00.902Z,11.6
2023-03-26T11:06:01.909Z,11.9
2023-03-26T11:07:04.906Z,12.1
2023-03-26T11:08:03.915Z,12.6
2023-03-26T11:09:04.956Z,12.7
2023-03-26T11:10:05.949Z,12.7
2023-03-26T11:11:06.991Z,12.6
2023-03-26T11:12:25.980Z,12.6
2023-03-26T11:13:08.950Z,12.5
2023-03-26T11:14:10.106Z,12.6
2023-03-26T11:15:11.931Z,12.7
2023-03-26T11:16:12.967Z,12.6
2023-03-26T11:17:39.152Z,12.4
2023-03-26T11:18:14.979Z,12.3
2023-03-26T11:19:15.926Z,12.3
2023-03-26T11:20:16.914Z,12.3
2023-03-26T11:21:18.293Z,12.1
2023-03-26T11:22:18.985Z,12.1
2023-03-26T11:23:19.917Z,12.2
2023-03-26T11:24:20.918Z,12.1
2023-03-26T11:25:22.199Z,12.1
2023-03-26T11:26:23.939Z,12
2023-03-26T11:27:26.298Z,12
2023-03-26T11:28:25.918Z,12.2
2023-03-26T11:29:30.918Z,12.5
2023-03-26T11:30:27.972Z,12.8
2023-03-26T11:31:28.978Z,13
2023-03-26T11:32:30.000Z,13
2023-03-26T11:33:32.672Z,12.9
2023-03-26T11:34:31.942Z,12.8
2023-03-26T11:35:39.977Z,12.9
2023-03-26T11:36:34.940Z,13
2023-03-26T11:37:35.933Z,13
2023-03-26T11:38:36.922Z,12.8
2023-03-26T11:39:37.950Z,12.7
2023-03-26T11:40:38.984Z,12.5
2023-03-26T11:41:39.956Z,12.4
2023-03-26T11:42:40.927Z,12.5
2023-03-26T11:43:41.980Z,12.4
2023-03-26T11:44:43.006Z,12.2
2023-03-26T11:45:43.934Z,12.2
2023-03-26T11:46:44.965Z,12.2
2023-03-26T11:47:45.982Z,12
2023-03-26T11:48:46.975Z,12.1
2023-03-26T11:49:47.917Z,12.1
2023-03-26T11:50:48.933Z,11.9
2023-03-26T11:51:49.943Z,11.7
2023-03-26T11:52:50.933Z,11.5
2023-03-26T11:53:51.941Z,11.6
2023-03-26T11:54:52.973Z,11.7
2023-03-26T11:55:53.940Z,11.7
2023-03-26T11:57:04.134Z,11.8
2023-03-26T11:57:55.926Z,12
2023-03-26T11:58:56.942Z,12
2023-03-26T11:59:58.277Z,11.9
2023-03-26T12:00:58.948Z,11.8
2023-03-26T12:01:59.918Z,11.7
2023-03-26T12:03:01.008Z,11.6
2023-03-26T12:04:01.963Z,11.6
2023-03-26T12:05:03.306Z,11.6
2023-03-26T12:06:05.053Z,11.5
2023-03-26T12:07:05.925Z,11.3
2023-03-26T12:08:06.971Z,11.1
2023-03-26T12:09:07.927Z,11
2023-03-26T12:10:15.377Z,11.1
2023-03-26T12:11:09.948Z,11
2023-03-26T12:12:10.984Z,11.1
2023-03-26T12:13:11.934Z,11
2023-03-26T12:14:12.973Z,11
2023-03-26T12:15:13.956Z,10.7
2023-03-26T12:16:15.094Z,10.6
2023-03-26T12:17:16.023Z,10.6
2023-03-26T12:18:16.915Z,10.7
2023-03-26T12:19:17.943Z,10.9
2023-03-26T12:20:18.943Z,11
2023-03-26T12:21:19.927Z,11
2023-03-26T12:22:20.953Z,11
2023-03-26T12:23:21.998Z,11.2
2023-03-26T12:24:22.935Z,11.2
2023-03-26T12:25:23.924Z,11
2023-03-26T12:26:24.903Z,11
2023-03-26T12:27:25.932Z,11.1
2023-03-26T12:28:27.012Z,11.2
2023-03-26T12:29:27.933Z,11.3
2023-03-26T12:30:28.926Z,11.5
2023-03-26T12:31:30.002Z,11.6
2023-03-26T12:32:43.103Z,11.8
2023-03-26T12:33:32.000Z,11.9
2023-03-26T12:34:32.963Z,11.9
2023-03-26T12:35:33.979Z,12
2023-03-26T12:36:34.953Z,12.2
2023-03-26T12:37:35.973Z,12.4
2023-03-26T12:38:36.922Z,12.6
2023-03-26T12:40:08.407Z,12.6
2023-03-26T12:40:38.914Z,12.7
2023-03-26T12:42:26.330Z,12.8
2023-03-26T12:44:45.826Z,12.9
2023-03-26T12:44:52.328Z,13
2023-03-26T12:44:58.584Z,13.1
2023-03-26T12:45:44.991Z,13.2
2023-03-26T12:47:55.833Z,13.1
2023-03-26T12:47:56.842Z,13.1
2023-03-26T12:48:47.995Z,13
2023-03-26T12:49:48.981Z,13
2023-03-26T12:50:49.980Z,12.9
2023-03-26T12:51:50.949Z,13
2023-03-26T12:52:51.972Z,13.1
2023-03-26T12:53:53.016Z,13
2023-03-26T12:54:53.992Z,12.9
2023-03-26T12:55:54.973Z,13.1
2023-03-26T12:57:11.451Z,13
2023-03-26T12:57:56.927Z,13.1
2023-03-26T12:58:57.943Z,13
2023-03-26T12:59:59.018Z,12.9
2023-03-26T13:01:00.024Z,12.8
2023-03-26T13:02:01.024Z,12.8
2023-03-26T13:03:03.062Z,12.9
2023-03-26T13:04:03.972Z,13
2023-03-26T13:05:06.651Z,13
2023-03-26T13:06:05.996Z,13.1
2023-03-26T13:07:06.997Z,13.2
2023-03-26T13:08:08.073Z,13.2
2023-03-26T13:09:09.001Z,13.3
2023-03-26T13:10:09.956Z,13.2
2023-03-26T13:11:10.958Z,13.2
2023-03-26T13:12:12.027Z,13.1
2023-03-26T13:13:13.002Z,13.1
2023-03-26T13:14:13.935Z,13
2023-03-26T13:15:14.989Z,13.1
2023-03-26T13:16:15.988Z,12.9
2023-03-26T13:17:17.002Z,12.8
2023-03-26T13:18:18.035Z,12.9
2023-03-26T13:19:19.048Z,12.8
2023-03-26T13:20:20.060Z,12.9
2023-03-26T13:21:21.023Z,12.9
2023-03-26T13:22:21.978Z,13
2023-03-26T13:23:23.031Z,13.1
2023-03-26T13:24:24.022Z,13.1
2023-03-26T13:25:25.020Z,13
2023-03-26T13:26:26.434Z,13
2023-03-26T13:27:28.026Z,13
2023-03-26T13:28:28.965Z,12.9
2023-03-26T13:29:29.979Z,13
2023-03-26T13:30:31.095Z,12.8
2023-03-26T13:31:32.042Z,12.9
2023-03-26T13:32:33.022Z,13
2023-03-26T13:33:33.980Z,13.1
2023-03-26T13:34:34.984Z,13.1
2023-03-26T13:35:36.035Z,13.1
2023-03-26T13:36:37.085Z,13.3
2023-03-26T13:37:38.049Z,13.4
2023-03-26T13:38:38.981Z,13.4
2023-03-26T13:39:40.234Z,13.4
2023-03-26T13:40:41.022Z,13.3
2023-03-26T13:41:42.013Z,13.4
2023-03-26T13:42:43.015Z,13.3
2023-03-26T13:43:44.022Z,13.1
2023-03-26T13:44:45.006Z,13
2023-03-26T13:45:45.972Z,13
2023-03-26T13:46:46.982Z,13
2023-03-26T13:47:48.073Z,13
2023-03-26T13:48:48.999Z,12.9
2023-03-26T13:49:49.986Z,12.8
2023-03-26T13:50:52.311Z,12.8
2023-03-26T13:51:52.040Z,12.9
2023-03-26T13:52:53.091Z,12.9
2023-03-26T13:53:53.998Z,12.8
2023-03-26T13:54:55.027Z,12.7
2023-03-26T13:55:56.050Z,12.6
2023-03-26T13:56:57.030Z,12.6
2023-03-26T13:57:58.007Z,12.6
2023-03-26T13:58:58.998Z,12.5
2023-03-26T13:59:59.989Z,12.4
2023-03-26T14:01:01.131Z,12.3